sensor_id;sensor_type;location;lat;lon;timestamp;P1;durP1;ratioP1;P2;durP2;ratioP2
20828;SDS011;10575;50.124;8.582;2023-07-02T00:01:12;2.90;;;2.30;;
20828;SDS011;10575;50.124;8.582;2023-07-02T00:03:38;5.65;;;2.53;;
20828;SDS011;10575;50.124;8.582;2023-07-02T00:06:04;5.72;;;2.88;;
20828;SDS011;10575;50.124;8.582;2023-07-02T00:08:30;6.43;;;2.45;;
20828;SDS011;10575;50.124;8.582;2023-07-02T00:10:55;4.68;;;2.70;;
20828;SDS011;10575;50.124;8.582;2023-07-02T00:13:21;5.55;;;2.50;;
20828;SDS011;10575;50.124;8.582;2023-07-02T00:15:47;5.22;;;3.45;;
20828;SDS011;10575;50.124;8.582;2023-07-02T00:18:12;3.35;;;2.63;;
20828;SDS011;10575;50.124;8.582;2023-07-02T00:20:41;5.95;;;3.33;;
20828;SDS011;10575;50.124;8.582;2023-07-02T00:23:06;3.20;;;2.38;;
20828;SDS011;10575;50.124;8.582;2023-07-02T00:25:33;3.90;;;2.30;;
20828;SDS011;10575;50.124;8.582;2023-07-02T00:27:59;5.88;;;2.60;;
20828;SDS011;10575;50.124;8.582;2023-07-02T00:30:25;5.53;;;3.15;;
20828;SDS011;10575;50.124;8.582;2023-07-02T00:32:50;8.65;;;3.42;;
20828;SDS011;10575;50.124;8.582;2023-07-02T00:35:16;7.18;;;3.70;;
20828;SDS011;10575;50.124;8.582;2023-07-02T00:37:41;5.35;;;2.85;;
20828;SDS011;10575;50.124;8.582;2023-07-02T00:40:07;7.20;;;3.10;;
20828;SDS011;10575;50.124;8.582;2023-07-02T00:42:33;4.40;;;2.55;;
20828;SDS011;10575;50.124;8.582;2023-07-02T00:44:59;4.32;;;2.53;;
20828;SDS011;10575;50.124;8.582;2023-07-02T00:47:27;5.28;;;2.50;;
20828;SDS011;10575;50.124;8.582;2023-07-02T00:49:54;8.43;;;3.13;;
20828;SDS011;10575;50.124;8.582;2023-07-02T00:52:19;5.93;;;2.47;;
20828;SDS011;10575;50.124;8.582;2023-07-02T00:54:45;7.03;;;2.70;;
20828;SDS011;10575;50.124;8.582;2023-07-02T00:57:11;3.95;;;2.50;;
20828;SDS011;10575;50.124;8.582;2023-07-02T00:59:37;5.03;;;2.58;;
20828;SDS011;10575;50.124;8.582;2023-07-02T01:02:03;5.03;;;2.42;;
20828;SDS011;10575;50.124;8.582;2023-07-02T01:04:30;4.45;;;2.55;;
20828;SDS011;10575;50.124;8.582;2023-07-02T01:06:56;5.00;;;2.35;;
20828;SDS011;10575;50.124;8.582;2023-07-02T01:09:24;7.88;;;2.70;;
20828;SDS011;10575;50.124;8.582;2023-07-02T01:11:54;4.72;;;2.58;;
20828;SDS011;10575;50.124;8.582;2023-07-02T01:14:28;4.45;;;2.50;;
20828;SDS011;10575;50.124;8.582;2023-07-02T01:17:06;5.72;;;2.85;;
20828;SDS011;10575;50.124;8.582;2023-07-02T01:22:18;3.97;;;2.55;;
20828;SDS011;10575;50.124;8.582;2023-07-02T01:24:48;2.90;;;2.50;;
20828;SDS011;10575;50.124;8.582;2023-07-02T01:27:15;5.50;;;2.70;;
20828;SDS011;10575;50.124;8.582;2023-07-02T01:29:41;7.90;;;2.35;;
20828;SDS011;10575;50.124;8.582;2023-07-02T01:32:09;8.35;;;2.10;;
20828;SDS011;10575;50.124;8.582;2023-07-02T01:34:35;9.75;;;2.30;;
20828;SDS011;10575;50.124;8.582;2023-07-02T01:37:01;6.32;;;2.20;;
20828;SDS011;10575;50.124;8.582;2023-07-02T01:39:28;7.00;;;2.95;;
20828;SDS011;10575;50.124;8.582;2023-07-02T01:42:07;7.20;;;3.22;;
20828;SDS011;10575;50.124;8.582;2023-07-02T01:44:34;9.20;;;3.28;;
20828;SDS011;10575;50.124;8.582;2023-07-02T01:47:00;4.22;;;2.63;;
20828;SDS011;10575;50.124;8.582;2023-07-02T01:49:25;6.22;;;2.90;;
20828;SDS011;10575;50.124;8.582;2023-07-02T01:51:51;6.18;;;2.67;;
20828;SDS011;10575;50.124;8.582;2023-07-02T01:54:18;5.18;;;2.50;;
20828;SDS011;10575;50.124;8.582;2023-07-02T01:56:43;3.55;;;2.38;;
20828;SDS011;10575;50.124;8.582;2023-07-02T01:59:09;3.85;;;2.25;;
20828;SDS011;10575;50.124;8.582;2023-07-02T02:01:34;5.28;;;2.88;;
20828;SDS011;10575;50.124;8.582;2023-07-02T02:04:00;7.82;;;2.80;;
20828;SDS011;10575;50.124;8.582;2023-07-02T02:06:25;10.85;;;3.00;;
20828;SDS011;10575;50.124;8.582;2023-07-02T02:08:51;9.60;;;2.97;;
20828;SDS011;10575;50.124;8.582;2023-07-02T02:11:16;8.93;;;2.75;;
20828;SDS011;10575;50.124;8.582;2023-07-02T02:13:42;7.47;;;3.47;;
20828;SDS011;10575;50.124;8.582;2023-07-02T02:16:07;4.35;;;2.70;;
20828;SDS011;10575;50.124;8.582;2023-07-02T02:18:33;11.30;;;2.97;;
20828;SDS011;10575;50.124;8.582;2023-07-02T02:20:59;6.97;;;2.95;;
20828;SDS011;10575;50.124;8.582;2023-07-02T02:23:25;8.10;;;3.80;;
20828;SDS011;10575;50.124;8.582;2023-07-02T02:25:50;6.25;;;2.97;;
20828;SDS011;10575;50.124;8.582;2023-07-02T02:28:16;6.55;;;3.08;;
20828;SDS011;10575;50.124;8.582;2023-07-02T02:30:42;5.85;;;3.50;;
20828;SDS011;10575;50.124;8.582;2023-07-02T02:33:07;5.57;;;2.97;;
20828;SDS011;10575;50.124;8.582;2023-07-02T02:35:32;8.32;;;3.05;;
20828;SDS011;10575;50.124;8.582;2023-07-02T02:38:01;4.25;;;3.03;;
20828;SDS011;10575;50.124;8.582;2023-07-02T02:40:27;9.32;;;2.97;;
20828;SDS011;10575;50.124;8.582;2023-07-02T02:42:53;9.93;;;2.90;;
20828;SDS011;10575;50.124;8.582;2023-07-02T02:45:19;5.07;;;2.13;;
20828;SDS011;10575;50.124;8.582;2023-07-02T02:47:45;5.22;;;3.70;;
20828;SDS011;10575;50.124;8.582;2023-07-02T02:50:12;6.00;;;2.88;;
20828;SDS011;10575;50.124;8.582;2023-07-02T02:52:38;7.15;;;3.45;;
20828;SDS011;10575;50.124;8.582;2023-07-02T02:55:04;4.60;;;2.75;;
20828;SDS011;10575;50.124;8.582;2023-07-02T02:57:31;7.20;;;2.75;;
20828;SDS011;10575;50.124;8.582;2023-07-02T02:59:57;6.45;;;2.70;;
20828;SDS011;10575;50.124;8.582;2023-07-02T03:02:24;9.75;;;3.20;;
20828;SDS011;10575;50.124;8.582;2023-07-02T03:04:50;8.52;;;2.50;;
20828;SDS011;10575;50.124;8.582;2023-07-02T03:07:15;7.80;;;3.20;;
20828;SDS011;10575;50.124;8.582;2023-07-02T03:09:41;7.03;;;3.08;;
20828;SDS011;10575;50.124;8.582;2023-07-02T03:12:07;7.95;;;3.10;;
20828;SDS011;10575;50.124;8.582;2023-07-02T03:14:32;8.07;;;4.03;;
20828;SDS011;10575;50.124;8.582;2023-07-02T03:16:58;6.28;;;3.40;;
20828;SDS011;10575;50.124;8.582;2023-07-02T03:19:24;6.80;;;3.40;;
20828;SDS011;10575;50.124;8.582;2023-07-02T03:21:49;8.05;;;3.47;;
20828;SDS011;10575;50.124;8.582;2023-07-02T03:24:15;7.65;;;3.88;;
20828;SDS011;10575;50.124;8.582;2023-07-02T03:26:41;6.82;;;3.33;;
20828;SDS011;10575;50.124;8.582;2023-07-02T03:29:07;7.32;;;3.67;;
20828;SDS011;10575;50.124;8.582;2023-07-02T03:31:33;8.30;;;3.05;;
20828;SDS011;10575;50.124;8.582;2023-07-02T03:34:03;6.45;;;3.58;;
20828;SDS011;10575;50.124;8.582;2023-07-02T03:36:30;7.57;;;3.55;;
20828;SDS011;10575;50.124;8.582;2023-07-02T03:38:56;12.05;;;4.47;;
20828;SDS011;10575;50.124;8.582;2023-07-02T03:41:21;9.43;;;4.30;;
20828;SDS011;10575;50.124;8.582;2023-07-02T03:43:47;8.40;;;3.97;;
20828;SDS011;10575;50.124;8.582;2023-07-02T03:46:13;12.68;;;4.30;;
20828;SDS011;10575;50.124;8.582;2023-07-02T03:48:39;9.20;;;4.10;;
20828;SDS011;10575;50.124;8.582;2023-07-02T03:51:04;12.73;;;4.45;;
20828;SDS011;10575;50.124;8.582;2023-07-02T03:53:30;11.35;;;4.18;;
20828;SDS011;10575;50.124;8.582;2023-07-02T03:55:55;11.32;;;4.50;;
20828;SDS011;10575;50.124;8.582;2023-07-02T03:58:21;10.27;;;4.75;;
20828;SDS011;10575;50.124;8.582;2023-07-02T04:00:46;9.65;;;5.00;;
20828;SDS011;10575;50.124;8.582;2023-07-02T04:03:14;10.68;;;4.60;;
20828;SDS011;10575;50.124;8.582;2023-07-02T04:05:41;9.80;;;4.00;;
20828;SDS011;10575;50.124;8.582;2023-07-02T04:08:06;7.57;;;4.28;;
20828;SDS011;10575;50.124;8.582;2023-07-02T04:10:32;9.88;;;4.25;;
20828;SDS011;10575;50.124;8.582;2023-07-02T04:12:58;10.90;;;3.97;;
20828;SDS011;10575;50.124;8.582;2023-07-02T04:15:23;9.80;;;4.13;;
20828;SDS011;10575;50.124;8.582;2023-07-02T04:17:50;11.20;;;4.50;;
20828;SDS011;10575;50.124;8.582;2023-07-02T04:20:16;10.88;;;4.40;;
20828;SDS011;10575;50.124;8.582;2023-07-02T04:22:43;9.98;;;3.85;;
20828;SDS011;10575;50.124;8.582;2023-07-02T04:25:12;8.98;;;3.90;;
20828;SDS011;10575;50.124;8.582;2023-07-02T04:27:40;6.22;;;3.63;;
20828;SDS011;10575;50.124;8.582;2023-07-02T04:30:07;9.02;;;3.90;;
20828;SDS011;10575;50.124;8.582;2023-07-02T04:32:34;9.02;;;4.15;;
20828;SDS011;10575;50.124;8.582;2023-07-02T04:35:00;10.93;;;4.65;;
20828;SDS011;10575;50.124;8.582;2023-07-02T04:37:26;8.65;;;3.90;;
20828;SDS011;10575;50.124;8.582;2023-07-02T04:39:53;10.07;;;4.90;;
20828;SDS011;10575;50.124;8.582;2023-07-02T04:42:19;10.00;;;4.40;;
20828;SDS011;10575;50.124;8.582;2023-07-02T04:44:44;16.33;;;5.80;;
20828;SDS011;10575;50.124;8.582;2023-07-02T04:47:10;10.00;;;5.43;;
20828;SDS011;10575;50.124;8.582;2023-07-02T04:49:36;11.02;;;5.70;;
20828;SDS011;10575;50.124;8.582;2023-07-02T04:52:02;13.52;;;5.68;;
20828;SDS011;10575;50.124;8.582;2023-07-02T04:54:28;9.63;;;5.80;;
20828;SDS011;10575;50.124;8.582;2023-07-02T04:56:53;11.00;;;5.38;;
20828;SDS011;10575;50.124;8.582;2023-07-02T04:59:20;12.85;;;6.28;;
20828;SDS011;10575;50.124;8.582;2023-07-02T05:01:46;12.05;;;6.00;;
20828;SDS011;10575;50.124;8.582;2023-07-02T05:04:12;10.90;;;5.65;;
20828;SDS011;10575;50.124;8.582;2023-07-02T05:06:37;12.35;;;5.32;;
20828;SDS011;10575;50.124;8.582;2023-07-02T05:09:03;11.48;;;5.93;;
20828;SDS011;10575;50.124;8.582;2023-07-02T05:11:28;10.85;;;5.57;;
20828;SDS011;10575;50.124;8.582;2023-07-02T05:13:54;12.40;;;6.15;;
20828;SDS011;10575;50.124;8.582;2023-07-02T05:16:20;10.18;;;5.70;;
20828;SDS011;10575;50.124;8.582;2023-07-02T05:18:45;13.43;;;5.82;;
20828;SDS011;10575;50.124;8.582;2023-07-02T05:21:11;10.90;;;6.07;;
20828;SDS011;10575;50.124;8.582;2023-07-02T05:23:36;11.32;;;5.80;;
20828;SDS011;10575;50.124;8.582;2023-07-02T05:26:02;13.05;;;5.40;;
20828;SDS011;10575;50.124;8.582;2023-07-02T05:28:28;10.20;;;6.18;;
20828;SDS011;10575;50.124;8.582;2023-07-02T05:30:53;12.75;;;6.07;;
20828;SDS011;10575;50.124;8.582;2023-07-02T05:33:19;17.13;;;6.82;;
20828;SDS011;10575;50.124;8.582;2023-07-02T05:35:46;10.50;;;6.68;;
20828;SDS011;10575;50.124;8.582;2023-07-02T05:38:12;14.57;;;6.40;;
20828;SDS011;10575;50.124;8.582;2023-07-02T05:40:38;19.15;;;7.15;;
20828;SDS011;10575;50.124;8.582;2023-07-02T05:43:04;14.45;;;7.15;;
20828;SDS011;10575;50.124;8.582;2023-07-02T05:45:29;15.98;;;7.30;;
20828;SDS011;10575;50.124;8.582;2023-07-02T05:47:55;12.15;;;6.50;;
20828;SDS011;10575;50.124;8.582;2023-07-02T05:50:20;12.85;;;6.95;;
20828;SDS011;10575;50.124;8.582;2023-07-02T05:52:46;15.85;;;6.68;;
20828;SDS011;10575;50.124;8.582;2023-07-02T05:55:11;11.73;;;6.85;;
20828;SDS011;10575;50.124;8.582;2023-07-02T05:57:37;12.48;;;6.38;;
20828;SDS011;10575;50.124;8.582;2023-07-02T06:00:04;13.80;;;7.57;;
20828;SDS011;10575;50.124;8.582;2023-07-02T06:02:31;13.57;;;6.80;;
20828;SDS011;10575;50.124;8.582;2023-07-02T06:04:57;12.57;;;6.70;;
20828;SDS011;10575;50.124;8.582;2023-07-02T06:07:26;10.20;;;6.72;;
20828;SDS011;10575;50.124;8.582;2023-07-02T06:09:52;10.63;;;7.15;;
20828;SDS011;10575;50.124;8.582;2023-07-02T06:12:17;9.90;;;6.43;;
20828;SDS011;10575;50.124;8.582;2023-07-02T06:14:43;11.38;;;6.50;;
20828;SDS011;10575;50.124;8.582;2023-07-02T06:17:09;12.90;;;7.03;;
20828;SDS011;10575;50.124;8.582;2023-07-02T06:19:36;14.15;;;7.70;;
20828;SDS011;10575;50.124;8.582;2023-07-02T06:22:03;11.82;;;6.18;;
20828;SDS011;10575;50.124;8.582;2023-07-02T06:24:28;11.60;;;6.70;;
20828;SDS011;10575;50.124;8.582;2023-07-02T06:26:54;11.40;;;7.13;;
20828;SDS011;10575;50.124;8.582;2023-07-02T06:29:21;11.88;;;6.75;;
20828;SDS011;10575;50.124;8.582;2023-07-02T06:31:47;12.60;;;7.15;;
20828;SDS011;10575;50.124;8.582;2023-07-02T06:34:12;10.35;;;6.78;;
20828;SDS011;10575;50.124;8.582;2023-07-02T06:36:39;15.70;;;7.57;;
20828;SDS011;10575;50.124;8.582;2023-07-02T06:39:04;13.70;;;7.05;;
20828;SDS011;10575;50.124;8.582;2023-07-02T06:41:30;14.68;;;7.97;;
20828;SDS011;10575;50.124;8.582;2023-07-02T06:43:56;12.93;;;7.55;;
20828;SDS011;10575;50.124;8.582;2023-07-02T06:46:21;15.45;;;9.32;;
20828;SDS011;10575;50.124;8.582;2023-07-02T06:48:46;16.02;;;8.40;;
20828;SDS011;10575;50.124;8.582;2023-07-02T06:51:12;13.27;;;7.65;;
20828;SDS011;10575;50.124;8.582;2023-07-02T06:53:39;13.30;;;8.00;;
20828;SDS011;10575;50.124;8.582;2023-07-02T06:56:07;14.63;;;7.15;;
20828;SDS011;10575;50.124;8.582;2023-07-02T06:58:34;12.98;;;8.13;;
20828;SDS011;10575;50.124;8.582;2023-07-02T07:01:00;13.50;;;8.48;;
20828;SDS011;10575;50.124;8.582;2023-07-02T07:03:25;14.90;;;7.88;;
20828;SDS011;10575;50.124;8.582;2023-07-02T07:05:51;16.00;;;8.20;;
20828;SDS011;10575;50.124;8.582;2023-07-02T07:08:17;17.15;;;8.80;;
20828;SDS011;10575;50.124;8.582;2023-07-02T07:10:43;12.75;;;8.82;;
20828;SDS011;10575;50.124;8.582;2023-07-02T07:13:10;13.77;;;7.80;;
20828;SDS011;10575;50.124;8.582;2023-07-02T07:15:36;15.50;;;9.10;;
20828;SDS011;10575;50.124;8.582;2023-07-02T07:18:01;18.95;;;9.38;;
20828;SDS011;10575;50.124;8.582;2023-07-02T07:20:27;13.75;;;8.38;;
20828;SDS011;10575;50.124;8.582;2023-07-02T07:22:53;11.75;;;8.18;;
20828;SDS011;10575;50.124;8.582;2023-07-02T07:25:18;16.73;;;7.97;;
20828;SDS011;10575;50.124;8.582;2023-07-02T07:27:44;16.95;;;9.25;;
20828;SDS011;10575;50.124;8.582;2023-07-02T07:30:09;17.30;;;9.27;;
20828;SDS011;10575;50.124;8.582;2023-07-02T07:32:35;16.75;;;9.50;;
20828;SDS011;10575;50.124;8.582;2023-07-02T07:35:01;16.58;;;8.20;;
20828;SDS011;10575;50.124;8.582;2023-07-02T07:37:26;14.60;;;9.18;;
20828;SDS011;10575;50.124;8.582;2023-07-02T07:39:52;14.85;;;9.38;;
20828;SDS011;10575;50.124;8.582;2023-07-02T07:42:18;16.65;;;9.45;;
20828;SDS011;10575;50.124;8.582;2023-07-02T07:44:46;19.02;;;9.27;;
20828;SDS011;10575;50.124;8.582;2023-07-02T07:47:12;17.95;;;9.40;;
20828;SDS011;10575;50.124;8.582;2023-07-02T07:49:38;16.65;;;9.23;;
20828;SDS011;10575;50.124;8.582;2023-07-02T07:52:03;18.92;;;10.77;;
20828;SDS011;10575;50.124;8.582;2023-07-02T07:54:31;19.98;;;10.18;;
20828;SDS011;10575;50.124;8.582;2023-07-02T07:56:57;16.20;;;9.57;;
20828;SDS011;10575;50.124;8.582;2023-07-02T07:59:23;15.13;;;9.40;;
20828;SDS011;10575;50.124;8.582;2023-07-02T08:01:49;15.70;;;9.63;;
20828;SDS011;10575;50.124;8.582;2023-07-02T08:04:14;17.65;;;9.90;;
20828;SDS011;10575;50.124;8.582;2023-07-02T08:06:40;13.93;;;8.82;;
20828;SDS011;10575;50.124;8.582;2023-07-02T08:09:05;21.98;;;10.75;;
20828;SDS011;10575;50.124;8.582;2023-07-02T08:11:31;15.52;;;8.75;;
20828;SDS011;10575;50.124;8.582;2023-07-02T08:13:57;15.18;;;9.05;;
20828;SDS011;10575;50.124;8.582;2023-07-02T08:16:22;15.35;;;9.68;;
20828;SDS011;10575;50.124;8.582;2023-07-02T08:18:48;14.18;;;9.35;;
20828;SDS011;10575;50.124;8.582;2023-07-02T08:21:13;16.52;;;8.98;;
20828;SDS011;10575;50.124;8.582;2023-07-02T08:23:41;13.65;;;9.32;;
20828;SDS011;10575;50.124;8.582;2023-07-02T08:26:08;13.85;;;8.40;;
20828;SDS011;10575;50.124;8.582;2023-07-02T08:28:35;15.73;;;9.50;;
20828;SDS011;10575;50.124;8.582;2023-07-02T08:31:01;18.30;;;9.68;;
20828;SDS011;10575;50.124;8.582;2023-07-02T08:33:26;15.20;;;8.88;;
20828;SDS011;10575;50.124;8.582;2023-07-02T08:35:52;13.88;;;8.60;;
20828;SDS011;10575;50.124;8.582;2023-07-02T08:38:17;12.38;;;8.20;;
20828;SDS011;10575;50.124;8.582;2023-07-02T08:40:43;12.85;;;9.15;;
20828;SDS011;10575;50.124;8.582;2023-07-02T08:43:09;11.38;;;8.50;;
20828;SDS011;10575;50.124;8.582;2023-07-02T08:45:34;13.82;;;8.70;;
20828;SDS011;10575;50.124;8.582;2023-07-02T08:48:01;12.05;;;8.25;;
20828;SDS011;10575;50.124;8.582;2023-07-02T08:50:26;12.20;;;8.43;;
20828;SDS011;10575;50.124;8.582;2023-07-02T08:52:53;14.32;;;8.35;;
20828;SDS011;10575;50.124;8.582;2023-07-02T08:55:19;10.93;;;8.13;;
20828;SDS011;10575;50.124;8.582;2023-07-02T08:57:55;12.38;;;7.82;;
20828;SDS011;10575;50.124;8.582;2023-07-02T09:00:24;11.18;;;8.48;;
20828;SDS011;10575;50.124;8.582;2023-07-02T09:02:50;8.48;;;7.63;;
20828;SDS011;10575;50.124;8.582;2023-07-02T09:05:16;9.52;;;7.85;;
20828;SDS011;10575;50.124;8.582;2023-07-02T09:07:46;10.98;;;8.20;;
20828;SDS011;10575;50.124;8.582;2023-07-02T09:10:25;13.00;;;9.23;;
20828;SDS011;10575;50.124;8.582;2023-07-02T09:13:01;12.05;;;8.45;;
20828;SDS011;10575;50.124;8.582;2023-07-02T09:15:34;10.85;;;7.82;;
20828;SDS011;10575;50.124;8.582;2023-07-02T09:18:01;12.80;;;8.57;;
20828;SDS011;10575;50.124;8.582;2023-07-02T09:20:32;11.40;;;8.00;;
20828;SDS011;10575;50.124;8.582;2023-07-02T09:22:58;13.55;;;8.38;;
20828;SDS011;10575;50.124;8.582;2023-07-02T09:25:33;14.18;;;8.88;;
20828;SDS011;10575;50.124;8.582;2023-07-02T09:28:01;14.68;;;7.75;;
20828;SDS011;10575;50.124;8.582;2023-07-02T09:30:27;12.15;;;8.05;;
20828;SDS011;10575;50.124;8.582;2023-07-02T09:32:53;12.38;;;8.02;;
20828;SDS011;10575;50.124;8.582;2023-07-02T09:35:19;17.15;;;8.48;;
20828;SDS011;10575;50.124;8.582;2023-07-02T09:37:45;11.02;;;7.53;;
20828;SDS011;10575;50.124;8.582;2023-07-02T09:40:11;11.90;;;7.22;;
20828;SDS011;10575;50.124;8.582;2023-07-02T09:42:38;14.73;;;7.90;;
20828;SDS011;10575;50.124;8.582;2023-07-02T09:45:05;11.95;;;8.32;;
20828;SDS011;10575;50.124;8.582;2023-07-02T09:47:33;13.23;;;7.05;;
20828;SDS011;10575;50.124;8.582;2023-07-02T09:50:02;11.52;;;7.00;;
20828;SDS011;10575;50.124;8.582;2023-07-02T09:52:30;14.50;;;7.03;;
20828;SDS011;10575;50.124;8.582;2023-07-02T09:54:58;13.10;;;6.90;;
20828;SDS011;10575;50.124;8.582;2023-07-02T09:57:23;12.48;;;7.38;;
20828;SDS011;10575;50.124;8.582;2023-07-02T09:59:49;13.43;;;8.40;;
20828;SDS011;10575;50.124;8.582;2023-07-02T10:02:15;16.13;;;8.88;;
20828;SDS011;10575;50.124;8.582;2023-07-02T10:04:47;16.15;;;8.75;;
20828;SDS011;10575;50.124;8.582;2023-07-02T10:07:29;13.23;;;8.32;;
20828;SDS011;10575;50.124;8.582;2023-07-02T10:09:57;12.82;;;8.18;;
20828;SDS011;10575;50.124;8.582;2023-07-02T10:14:56;14.50;;;9.02;;
20828;SDS011;10575;50.124;8.582;2023-07-02T10:17:53;13.15;;;8.40;;
20828;SDS011;10575;50.124;8.582;2023-07-02T10:20:19;13.43;;;8.15;;
20828;SDS011;10575;50.124;8.582;2023-07-02T10:22:55;13.55;;;8.18;;
20828;SDS011;10575;50.124;8.582;2023-07-02T10:25:25;13.45;;;8.75;;
20828;SDS011;10575;50.124;8.582;2023-07-02T10:27:51;15.95;;;8.98;;
20828;SDS011;10575;50.124;8.582;2023-07-02T10:30:17;11.68;;;8.27;;
20828;SDS011;10575;50.124;8.582;2023-07-02T10:32:42;14.25;;;8.43;;
20828;SDS011;10575;50.124;8.582;2023-07-02T10:35:14;11.10;;;7.78;;
20828;SDS011;10575;50.124;8.582;2023-07-02T10:37:43;15.15;;;9.15;;
20828;SDS011;10575;50.124;8.582;2023-07-02T10:40:10;12.60;;;9.13;;
20828;SDS011;10575;50.124;8.582;2023-07-02T10:42:55;13.98;;;8.75;;
20828;SDS011;10575;50.124;8.582;2023-07-02T10:45:21;13.00;;;7.93;;
20828;SDS011;10575;50.124;8.582;2023-07-02T10:47:57;16.17;;;8.30;;
20828;SDS011;10575;50.124;8.582;2023-07-02T10:50:23;18.05;;;10.30;;
20828;SDS011;10575;50.124;8.582;2023-07-02T10:52:49;17.15;;;9.13;;
20828;SDS011;10575;50.124;8.582;2023-07-02T10:55:21;12.82;;;8.68;;
20828;SDS011;10575;50.124;8.582;2023-07-02T10:57:48;14.32;;;8.88;;
20828;SDS011;10575;50.124;8.582;2023-07-02T11:00:18;15.00;;;8.88;;
20828;SDS011;10575;50.124;8.582;2023-07-02T11:02:44;19.38;;;9.27;;
20828;SDS011;10575;50.124;8.582;2023-07-02T11:05:10;14.27;;;8.93;;
20828;SDS011;10575;50.124;8.582;2023-07-02T11:07:46;15.90;;;8.25;;
20828;SDS011;10575;50.124;8.582;2023-07-02T11:10:17;14.10;;;8.13;;
20828;SDS011;10575;50.124;8.582;2023-07-02T11:12:43;12.27;;;7.88;;
20828;SDS011;10575;50.124;8.582;2023-07-02T11:15:15;15.88;;;9.35;;
20828;SDS011;10575;50.124;8.582;2023-07-02T11:17:43;16.85;;;9.70;;
20828;SDS011;10575;50.124;8.582;2023-07-02T11:20:09;18.52;;;8.93;;
20828;SDS011;10575;50.124;8.582;2023-07-02T11:22:36;11.68;;;8.32;;
20828;SDS011;10575;50.124;8.582;2023-07-02T11:25:16;17.30;;;8.23;;
20828;SDS011;10575;50.124;8.582;2023-07-02T11:27:45;13.00;;;8.27;;
20828;SDS011;10575;50.124;8.582;2023-07-02T11:30:10;11.70;;;7.95;;
20828;SDS011;10575;50.124;8.582;2023-07-02T11:32:49;13.75;;;9.10;;
20828;SDS011;10575;50.124;8.582;2023-07-02T11:35:16;13.82;;;8.63;;
20828;SDS011;10575;50.124;8.582;2023-07-02T11:37:43;13.52;;;8.48;;
20828;SDS011;10575;50.124;8.582;2023-07-02T11:40:09;18.08;;;9.35;;
20828;SDS011;10575;50.124;8.582;2023-07-02T11:42:35;19.00;;;9.13;;
20828;SDS011;10575;50.124;8.582;2023-07-02T11:45:01;19.75;;;10.15;;
20828;SDS011;10575;50.124;8.582;2023-07-02T11:47:27;17.35;;;9.95;;
20828;SDS011;10575;50.124;8.582;2023-07-02T11:49:52;15.73;;;9.48;;
20828;SDS011;10575;50.124;8.582;2023-07-02T11:52:20;17.15;;;10.30;;
20828;SDS011;10575;50.124;8.582;2023-07-02T11:54:45;16.75;;;10.10;;
20828;SDS011;10575;50.124;8.582;2023-07-02T11:57:11;14.70;;;9.20;;
20828;SDS011;10575;50.124;8.582;2023-07-02T11:59:37;20.52;;;10.45;;
20828;SDS011;10575;50.124;8.582;2023-07-02T12:02:03;19.48;;;10.30;;
20828;SDS011;10575;50.124;8.582;2023-07-02T12:04:28;15.98;;;9.50;;
20828;SDS011;10575;50.124;8.582;2023-07-02T12:06:54;15.95;;;10.20;;
20828;SDS011;10575;50.124;8.582;2023-07-02T12:09:19;17.05;;;10.10;;
20828;SDS011;10575;50.124;8.582;2023-07-02T12:11:45;24.95;;;11.18;;
20828;SDS011;10575;50.124;8.582;2023-07-02T12:14:11;16.10;;;9.55;;
20828;SDS011;10575;50.124;8.582;2023-07-02T12:16:36;17.67;;;9.88;;
20828;SDS011;10575;50.124;8.582;2023-07-02T12:19:02;15.95;;;8.65;;
20828;SDS011;10575;50.124;8.582;2023-07-02T12:21:27;16.67;;;10.15;;
20828;SDS011;10575;50.124;8.582;2023-07-02T12:23:53;13.10;;;8.20;;
20828;SDS011;10575;50.124;8.582;2023-07-02T12:26:19;13.00;;;8.40;;
20828;SDS011;10575;50.124;8.582;2023-07-02T12:28:44;13.95;;;8.15;;
20828;SDS011;10575;50.124;8.582;2023-07-02T12:31:10;18.52;;;9.75;;
20828;SDS011;10575;50.124;8.582;2023-07-02T12:33:37;17.58;;;9.52;;
20828;SDS011;10575;50.124;8.582;2023-07-02T12:36:03;18.10;;;8.52;;
20828;SDS011;10575;50.124;8.582;2023-07-02T12:38:29;15.57;;;8.75;;
20828;SDS011;10575;50.124;8.582;2023-07-02T12:40:54;15.27;;;9.32;;
20828;SDS011;10575;50.124;8.582;2023-07-02T12:43:20;16.50;;;8.93;;
20828;SDS011;10575;50.124;8.582;2023-07-02T12:45:46;14.77;;;9.20;;
20828;SDS011;10575;50.124;8.582;2023-07-02T12:48:12;17.50;;;9.90;;
20828;SDS011;10575;50.124;8.582;2023-07-02T12:50:37;17.63;;;10.10;;
20828;SDS011;10575;50.124;8.582;2023-07-02T12:53:04;14.50;;;9.23;;
20828;SDS011;10575;50.124;8.582;2023-07-02T12:55:30;17.13;;;9.10;;
20828;SDS011;10575;50.124;8.582;2023-07-02T12:57:55;14.88;;;9.18;;
20828;SDS011;10575;50.124;8.582;2023-07-02T13:00:21;13.45;;;9.30;;
20828;SDS011;10575;50.124;8.582;2023-07-02T13:02:47;17.42;;;10.48;;
20828;SDS011;10575;50.124;8.582;2023-07-02T13:05:13;16.65;;;10.05;;
20828;SDS011;10575;50.124;8.582;2023-07-02T13:07:38;18.70;;;9.65;;
20828;SDS011;10575;50.124;8.582;2023-07-02T13:10:04;16.92;;;9.80;;
20828;SDS011;10575;50.124;8.582;2023-07-02T13:12:30;16.40;;;9.80;;
20828;SDS011;10575;50.124;8.582;2023-07-02T13:14:56;15.75;;;9.70;;
20828;SDS011;10575;50.124;8.582;2023-07-02T13:17:21;17.48;;;10.73;;
20828;SDS011;10575;50.124;8.582;2023-07-02T13:19:47;18.08;;;9.77;;
20828;SDS011;10575;50.124;8.582;2023-07-02T13:22:13;15.93;;;10.23;;
20828;SDS011;10575;50.124;8.582;2023-07-02T13:24:39;17.55;;;9.57;;
20828;SDS011;10575;50.124;8.582;2023-07-02T13:27:07;18.13;;;10.50;;
20828;SDS011;10575;50.124;8.582;2023-07-02T13:29:37;17.90;;;9.95;;
20828;SDS011;10575;50.124;8.582;2023-07-02T13:32:03;19.15;;;10.20;;
20828;SDS011;10575;50.124;8.582;2023-07-02T13:34:29;16.52;;;9.73;;
20828;SDS011;10575;50.124;8.582;2023-07-02T13:36:54;17.17;;;10.55;;
20828;SDS011;10575;50.124;8.582;2023-07-02T13:39:20;19.77;;;9.50;;
20828;SDS011;10575;50.124;8.582;2023-07-02T13:41:45;20.50;;;9.85;;
20828;SDS011;10575;50.124;8.582;2023-07-02T13:44:11;19.38;;;10.07;;
20828;SDS011;10575;50.124;8.582;2023-07-02T13:46:36;16.00;;;9.35;;
20828;SDS011;10575;50.124;8.582;2023-07-02T13:49:02;21.17;;;10.43;;
20828;SDS011;10575;50.124;8.582;2023-07-02T13:51:27;19.20;;;10.38;;
20828;SDS011;10575;50.124;8.582;2023-07-02T13:53:53;15.65;;;9.68;;
20828;SDS011;10575;50.124;8.582;2023-07-02T13:56:18;15.23;;;10.40;;
20828;SDS011;10575;50.124;8.582;2023-07-02T14:01:22;18.52;;;10.00;;
20828;SDS011;10575;50.124;8.582;2023-07-02T14:03:48;17.02;;;10.88;;
20828;SDS011;10575;50.124;8.582;2023-07-02T14:06:14;18.45;;;10.45;;
20828;SDS011;10575;50.124;8.582;2023-07-02T14:08:40;19.17;;;10.30;;
20828;SDS011;10575;50.124;8.582;2023-07-02T14:11:06;18.92;;;10.32;;
20828;SDS011;10575;50.124;8.582;2023-07-02T14:13:31;21.70;;;10.77;;
20828;SDS011;10575;50.124;8.582;2023-07-02T14:15:57;21.90;;;11.48;;
20828;SDS011;10575;50.124;8.582;2023-07-02T14:18:23;19.38;;;11.23;;
20828;SDS011;10575;50.124;8.582;2023-07-02T14:20:49;22.33;;;11.07;;
20828;SDS011;10575;50.124;8.582;2023-07-02T14:23:14;17.60;;;11.27;;
20828;SDS011;10575;50.124;8.582;2023-07-02T14:25:40;18.77;;;10.45;;
20828;SDS011;10575;50.124;8.582;2023-07-02T14:28:05;20.88;;;11.48;;
20828;SDS011;10575;50.124;8.582;2023-07-02T14:30:31;20.42;;;11.13;;
20828;SDS011;10575;50.124;8.582;2023-07-02T14:32:56;18.17;;;10.75;;
20828;SDS011;10575;50.124;8.582;2023-07-02T14:35:22;19.95;;;11.35;;
20828;SDS011;10575;50.124;8.582;2023-07-02T14:37:52;18.95;;;11.10;;
20828;SDS011;10575;50.124;8.582;2023-07-02T14:40:18;17.70;;;10.82;;